首页
METAR-TAF:

METAR-TAF

机场 :

奧倫堡特森特拉尼機場

奥伦堡, 俄罗斯

纬度: 51-46-48N, 经度: 055-07-12E, 海拔: 109米

当前天气观测

该预报发布于46分钟前的00:30 UTC
风速6节,风向
温度 17°C
湿度 72%
气压 1006 hPa
能见度10公里或以上
1500米以下无云,无积雨云

METAR: UWOO 310030Z 08003MPS CAVOK 17/12 Q1006 R08/CLRD65 NOSIG RMK QFE744/0992

时间: 06:16 (01:16 UTC)

预报

该预报发布于2小时和18分钟前的22:58 UTC
预报有效从31日的 00点(UTC)到 31日的 24点(UTC)
风速12节,风向西转西南,有时为23节阵风
能见度10公里或以上
多云层高于4000英尺
短暂存在
从 31日的 00点(UTC)到 31日的 06点(UTC)
风速6节,风向,有时为16节阵风
能見度: 6000
散云层高于1600英尺, 积雨云.
小阵雨
短暂存在
从 31日的 06点(UTC)到 31日的 24点(UTC)
风速19节,风向西,有时为29节阵风

TAF: UWOO 302258Z 3100/3124 24006G12MPS 9999 BKN040 TX30/3112Z TN15/3102Z TEMPO 3100/3106 10003G08MPS 6000 -SHRA SCT016CB TEMPO 3106/3124 26010G15MPS

超过4000个机场的气象观测和天气预报(METAR&TAF报告)。

可查询的气象台以黄色和红色小点在地图上表示。

将鼠标移到小点上方,可查看气象台名称。

然后点击查看天气观测和预报。

如需切换地图:点击带黑十字的绿色按钮放大地图;点击带横线的绿色按钮缩小地图;或者点击绿色箭头查看邻近地区的地图。


METAR-TAF: